< Typhoon 200420 2004 Season Typhoon 200422 >
Typhoon 200421 (MEARI)
General InformationTrack Information on Google MapsDetailed Wind InformationAccess Analytics MapList of All Images || NewsDisaster Info.WeblogTrackbackTyphoon FrontResourceGoogle EarthGE AnimationAtom FeedGeoJSON
Detalied Best Track (Time Zone = UTC)
Year Month Day Hour Lat. Long. Pressure (hPa) Wind (kt) Class Image Chart
2004 9 19 00 12.5 149.5 1008 0 2 Image Chart
2004 9 19 06 12.1 148.4 1006 0 2 Image Chart
2004 9 19 12 12.3 147.8 1006 0 2 Image Chart
2004 9 19 18 12.5 146.6 1006 0 2 Image Chart
2004 9 20 00 12.6 145.3 1004 0 2 Image Chart
2004 9 20 06 12.6 144.2 1002 0 2 Image Chart
2004 9 20 12 12.8 143.4 1000 0 2 Image Chart
2004 9 20 18 12.9 142.6 998 35 3 Image Chart
2004 9 21 00 13.2 141.9 998 35 3 Image Chart
2004 9 21 06 13.5 141.4 994 40 3 Image Chart
2004 9 21 12 14.0 140.8 990 45 3 Image Chart
2004 9 21 18 14.5 140.1 985 50 4 Image Chart
2004 9 22 00 14.9 139.6 980 50 4 Image Chart
2004 9 22 06 15.4 139.2 980 50 4 Image Chart
2004 9 22 12 16.0 138.6 975 55 4 Image Chart
2004 9 22 18 16.5 138.2 975 65 5 Image Chart
2004 9 23 00 17.3 137.5 970 65 5 Image Chart
2004 9 23 06 17.9 136.7 960 75 5 Image Chart
2004 9 23 12 18.4 135.9 960 75 5 Image Chart
2004 9 23 18 18.8 135.1 950 80 5 Image Chart
2004 9 24 00 19.4 134.3 945 85 5 Image Chart
2004 9 24 06 20.1 133.3 940 90 5 Image Chart
2004 9 24 12 20.5 132.6 940 90 5 Image Chart
2004 9 24 18 21.4 131.9 940 90 5 Image Chart
2004 9 25 00 22.3 131.2 940 90 5 Image Chart
2004 9 25 06 23.6 130.2 945 85 5 Image Chart
2004 9 25 12 24.5 129.2 950 80 5 Image Chart
2004 9 25 15 24.8 128.5 950 80 5 Image Chart
2004 9 25 18 25.2 127.8 950 80 5 Image Chart
2004 9 25 21 25.4 127.1 950 80 5 Image Chart
2004 9 26 00 25.5 126.5 950 80 5 Image Chart
2004 9 26 03 25.6 126.0 950 80 5 Image Chart
2004 9 26 06 25.7 125.6 945 85 5 Image Chart
2004 9 26 09 25.8 125.4 945 85 5 Image Chart
2004 9 26 12 25.8 125.2 945 85 5 Image Chart
2004 9 26 15 25.9 125.0 945 85 5 Image Chart
2004 9 26 18 26.0 124.8 945 85 5 Image Chart
2004 9 26 21 26.1 124.9 945 85 5 Image Chart
2004 9 27 00 26.1 124.9 945 85 5 Image Chart
2004 9 27 03 26.2 125.0 945 85 5 Image Chart
2004 9 27 06 26.3 125.1 945 85 5 Image Chart
2004 9 27 09 26.5 125.3 945 80 5 Image Chart
2004 9 27 12 26.8 125.5 950 80 5 Image Chart
2004 9 27 15 26.9 125.8 950 80 5 Image Chart
2004 9 27 18 27.2 126.0 955 75 5 Image Chart
2004 9 27 21 27.6 126.3 955 75 5 Image Chart
2004 9 28 00 28.0 126.6 960 70 5 Image Chart
2004 9 28 03 28.4 126.8 960 70 5 Image Chart
2004 9 28 06 28.9 127.1 965 65 5 Image Chart
2004 9 28 09 29.4 127.4 965 65 5 Image Chart
2004 9 28 12 29.9 127.8 965 65 5 Image Chart
2004 9 28 15 30.3 128.3 965 65 5 Image Chart
2004 9 28 18 30.8 129.0 970 60 4 Image Chart
2004 9 28 21 31.2 129.7 970 60 4 Image Chart
2004 9 28 23 31.5 130.2 970 60 4 Image Chart
2004 9 29 00 31.7 130.5 970 60 4 Image Chart
2004 9 29 03 32.3 131.5 975 60 4 Image Chart
2004 9 29 06 32.9 132.7 980 55 4 Image Chart
2004 9 29 09 33.7 134.0 985 55 4 Image Chart
2004 9 29 11 34.4 134.6 990 50 4 Image Chart
2004 9 29 12 34.8 135.5 990 50 4 Image Chart
2004 9 29 15 36.2 136.4 992 45 3 Image Chart
2004 9 29 18 37.0 137.8 994 45 3 Image Chart
2004 9 29 21 38.3 140.0 994 45 3 Image Chart
2004 9 30 00 38.7 141.1 996 0 6 Image Chart
2004 9 30 06 39.0 143.4 1000 0 6 Image Chart
2004 9 30 12 38.4 145.0 1002 0 6 Image Chart
2004 9 30 18 37.5 146.4 1004 0 6 Image Chart
2004 10 1 00 36.7 148.0 1004 0 6 Image Chart
2004 10 1 06 36.1 150.2 1004 0 6 Image Chart
2004 10 1 12 36.1 151.1 1006 0 6 Image Chart
2004 10 1 18 36.2 151.9 1006 0 6 Image Chart
2004 10 2 00 36.1 152.2 1008 0 6 Image Chart
2004 10 2 06 36.0 152.7 1012 0 6 Image Chart
2004 10 2 12 34.3 152.4 1014 0 6 Image Chart
2004 10 2 18 32.1 152.9 1014 0 6 Image Chart
Japan Meteorological Agency Best Track Data | Correction Date : 2006-01-18
< Typhoon 200420 2004 Season Typhoon 200422 >

Help